Time;durP1;ratioP1;P1;durP2;ratioP2;P2;SDS_P1;SDS_P2;PMS_P1;PMS_P2;Temp;Humidity;BMP_temperature;BMP_pressure;BME280_temperature;BME280_humidity;BME280_pressure;Samples;Min_cycle;Max_cycle;Signal;HPM_P1;HPM_P2
2022/07/16 00:01:28;;;;;;;7.90;4.85;;;25.70;99.90;;;;;;5096408;28;20032;-73
2022/07/16 00:03:57;;;;;;;8.27;5.03;;;25.70;99.90;;;;;;5097969;28;20028;-74
2022/07/16 00:06:25;;;;;;;5.35;4.20;;;25.60;99.90;;;;;;5105169;28;20031;-73
2022/07/16 00:08:52;;;;;;;6.38;3.90;;;25.60;99.90;;;;;;5091440;28;20095;-74
2022/07/16 00:11:18;;;;;;;4.57;4.18;;;25.60;99.90;;;;;;5088103;28;20040;-75
2022/07/16 00:13:44;;;;;;;6.57;3.60;;;25.50;99.90;;;;;;5090524;28;20021;-74
2022/07/16 00:16:11;;;;;;;4.88;4.35;;;25.60;99.90;;;;;;5091697;28;20028;-74
2022/07/16 00:21:22;;;;;;;8.25;4.00;;;25.60;99.90;;;;;;5094736;28;20035;-74
2022/07/16 00:23:48;;;;;;;6.25;4.07;;;25.70;99.90;;;;;;5094952;28;20099;-74
2022/07/16 00:26:15;;;;;;;9.90;5.30;;;25.50;99.90;;;;;;5094886;28;20063;-74
2022/07/16 00:28:40;;;;;;;6.70;5.15;;;25.50;99.90;;;;;;5094866;28;20076;-75
2022/07/16 00:31:06;;;;;;;6.80;4.00;;;25.10;99.90;;;;;;5094582;28;20441;-73
2022/07/16 00:33:32;;;;;;;7.05;4.20;;;25.20;99.90;;;;;;5094642;28;20027;-74
2022/07/16 00:35:58;;;;;;;8.77;4.75;;;25.10;99.90;;;;;;5091911;28;20060;-74
2022/07/16 00:38:24;;;;;;;7.75;5.22;;;25.20;99.90;;;;;;5086040;28;20081;-74
2022/07/16 00:40:50;;;;;;;6.47;4.03;;;25.30;99.90;;;;;;5094077;28;20035;-74
2022/07/16 00:43:16;;;;;;;4.75;4.30;;;25.30;99.90;;;;;;5092759;28;20073;-74
2022/07/16 00:45:41;;;;;;;9.68;5.03;;;25.30;99.90;;;;;;5093998;28;20024;-74
2022/07/16 00:48:07;;;;;;;6.80;4.45;;;25.40;99.90;;;;;;5092597;28;20166;-75
2022/07/16 00:50:35;;;;;;;4.07;3.72;;;25.40;99.90;;;;;;5093199;28;20124;-74
2022/07/16 00:53:01;;;;;;;5.85;4.15;;;25.50;99.90;;;;;;5093183;28;20028;-74
2022/07/16 00:55:28;;;;;;;5.25;4.75;;;25.50;99.90;;;;;;5093425;28;20039;-74
2022/07/16 00:57:58;;;;;;;5.78;4.50;;;25.50;99.90;;;;;;5091995;28;20036;-75
2022/07/16 01:00:25;;;;;;;7.22;4.45;;;25.50;99.90;;;;;;5091535;28;20190;-74
2022/07/16 01:02:51;;;;;;;5.60;4.13;;;25.50;99.90;;;;;;5093237;28;20436;-75
2022/07/16 01:05:18;;;;;;;6.55;4.50;;;25.50;99.90;;;;;;5092060;28;20508;-75
2022/07/16 01:07:44;;;;;;;5.00;3.80;;;25.50;99.90;;;;;;5091739;28;20107;-74
2022/07/16 01:10:11;;;;;;;4.13;3.75;;;25.50;99.90;;;;;;5092817;28;20066;-75
2022/07/16 01:12:38;;;;;;;7.00;4.18;;;25.50;99.90;;;;;;5092996;28;20031;-75
2022/07/16 01:15:04;;;;;;;8.57;4.22;;;25.50;99.90;;;;;;5093321;28;20016;-74
2022/07/16 01:17:30;;;;;;;7.20;3.90;;;25.50;99.90;;;;;;5093232;28;20441;-74
2022/07/16 01:19:56;;;;;;;4.45;4.05;;;25.40;99.90;;;;;;5092735;28;20059;-75
2022/07/16 01:22:23;;;;;;;5.55;4.93;;;25.50;99.90;;;;;;5091354;28;20044;-74
2022/07/16 01:24:50;;;;;;;7.07;4.30;;;25.40;99.90;;;;;;5092798;28;20027;-74
2022/07/16 01:27:19;;;;;;;5.78;4.25;;;25.40;99.90;;;;;;5092851;28;20032;-74
2022/07/16 01:29:45;;;;;;;3.75;3.45;;;25.30;99.90;;;;;;5091693;28;20052;-75
2022/07/16 01:32:11;;;;;;;10.90;4.05;;;25.30;99.90;;;;;;5092361;28;20155;-74
2022/07/16 01:34:38;;;;;;;4.80;4.32;;;25.30;99.90;;;;;;5091397;28;20197;-74
2022/07/16 01:37:09;;;;;;;4.88;3.97;;;25.30;99.90;;;;;;5090096;28;20024;-74
2022/07/16 01:39:38;;;;;;;7.15;4.47;;;25.30;99.90;;;;;;5079178;28;20031;-75
2022/07/16 01:42:06;;;;;;;6.80;4.03;;;25.30;99.90;;;;;;5072371;28;20025;-75
2022/07/16 01:44:34;;;;;;;8.07;3.80;;;25.30;99.90;;;;;;5071990;28;20036;-73
2022/07/16 01:47:02;;;;;;;5.07;4.22;;;25.30;99.90;;;;;;5070887;28;20079;-74
2022/07/16 01:49:33;;;;;;;6.07;4.70;;;25.30;99.90;;;;;;5070415;28;20020;-74
2022/07/16 01:52:11;;;;;;;5.18;4.47;;;25.20;99.90;;;;;;5070487;28;20085;-74
2022/07/16 01:54:43;;;;;;;5.75;4.10;;;25.30;99.90;;;;;;5072070;28;20027;-74
2022/07/16 01:57:08;;;;;;;6.72;4.05;;;25.30;99.90;;;;;;5071727;28;20482;-72
2022/07/16 01:59:34;;;;;;;5.10;4.13;;;25.30;99.90;;;;;;5071810;28;20067;-73
2022/07/16 02:02:00;;;;;;;7.15;4.28;;;25.30;99.90;;;;;;5071757;28;20033;-75
2022/07/16 02:04:26;;;;;;;6.05;4.15;;;25.30;99.90;;;;;;5070413;28;20407;-73
2022/07/16 02:06:51;;;;;;;6.35;4.15;;;25.20;99.90;;;;;;5078139;28;20020;-74
2022/07/16 02:09:17;;;;;;;6.30;4.20;;;25.20;99.90;;;;;;5091518;28;20047;-74
2022/07/16 02:11:43;;;;;;;14.65;4.40;;;25.20;99.90;;;;;;5092126;28;20486;-74
2022/07/16 02:14:09;;;;;;;5.57;4.68;;;25.20;99.90;;;;;;5091986;28;20036;-74
2022/07/16 02:16:34;;;;;;;4.47;3.60;;;25.10;99.90;;;;;;5091134;28;20024;-74
2022/07/16 02:19:00;;;;;;;5.38;4.15;;;25.00;99.90;;;;;;5091082;28;20036;-74
2022/07/16 02:21:26;;;;;;;4.88;3.92;;;24.90;99.90;;;;;;5092321;28;20039;-74
2022/07/16 02:23:52;;;;;;;5.25;3.78;;;24.90;99.90;;;;;;5090909;28;20028;-74
2022/07/16 02:26:18;;;;;;;9.30;4.43;;;24.90;99.90;;;;;;5092197;28;20024;-74
2022/07/16 02:28:43;;;;;;;7.65;4.40;;;24.90;99.90;;;;;;5092394;28;20389;-75
2022/07/16 02:31:09;;;;;;;4.63;3.75;;;24.90;99.90;;;;;;5092816;28;20024;-75
2022/07/16 02:33:35;;;;;;;8.48;4.18;;;24.70;99.90;;;;;;5092546;28;20039;-74
2022/07/16 02:36:01;;;;;;;7.53;4.95;;;24.70;99.90;;;;;;5091368;28;20571;-74
2022/07/16 02:38:26;;;;;;;7.43;4.53;;;24.80;99.90;;;;;;5080701;28;20103;-74
2022/07/16 02:40:52;;;;;;;8.80;4.05;;;24.70;99.90;;;;;;5072433;28;20474;-74
2022/07/16 02:43:18;;;;;;;4.60;4.20;;;24.70;99.90;;;;;;5072226;28;20383;-74
2022/07/16 02:45:44;;;;;;;3.90;3.35;;;24.90;99.90;;;;;;5074313;28;20029;-74
2022/07/16 02:48:10;;;;;;;7.30;4.40;;;24.90;99.90;;;;;;5076234;28;20214;-73
2022/07/16 02:50:36;;;;;;;6.30;4.90;;;24.90;99.90;;;;;;5079396;28;20110;-74
2022/07/16 02:53:03;;;;;;;4.85;4.15;;;24.90;99.90;;;;;;5078465;28;20024;-73
2022/07/16 02:55:29;;;;;;;7.57;3.88;;;24.90;99.90;;;;;;5077477;28;20031;-74
2022/07/16 02:57:54;;;;;;;4.70;3.85;;;24.80;99.90;;;;;;5082083;28;20072;-73
2022/07/16 03:00:21;;;;;;;7.32;4.28;;;24.80;99.90;;;;;;5081195;28;20032;-73
2022/07/16 03:02:47;;;;;;;3.83;3.47;;;24.90;99.90;;;;;;5083026;28;20390;-73
2022/07/16 03:05:13;;;;;;;8.32;4.15;;;24.90;99.90;;;;;;5082082;28;20021;-73
2022/07/16 03:07:40;;;;;;;7.75;3.63;;;24.90;99.90;;;;;;5095664;28;20021;-74
2022/07/16 03:10:07;;;;;;;6.25;4.13;;;24.90;99.90;;;;;;5096139;28;20024;-74
2022/07/16 03:12:33;;;;;;;8.55;4.57;;;24.90;99.90;;;;;;5091071;28;20103;-74
2022/07/16 03:15:00;;;;;;;4.22;3.50;;;24.90;99.90;;;;;;5089476;28;20190;-74
2022/07/16 03:17:26;;;;;;;6.50;4.47;;;24.90;99.90;;;;;;5090791;28;20028;-73
2022/07/16 03:19:51;;;;;;;5.05;4.43;;;24.90;99.90;;;;;;5089157;28;20624;-73
2022/07/16 03:22:18;;;;;;;6.35;3.88;;;24.90;99.90;;;;;;5089350;28;20428;-73
2022/07/16 03:24:44;;;;;;;5.63;3.90;;;24.90;99.90;;;;;;5089338;28;20107;-73
2022/07/16 03:27:10;;;;;;;6.07;4.13;;;25.00;99.90;;;;;;5090621;28;20489;-74
2022/07/16 03:29:36;;;;;;;4.85;4.03;;;25.00;99.90;;;;;;5090307;28;20016;-75
2022/07/16 03:32:02;;;;;;;6.55;4.30;;;25.00;99.90;;;;;;5090498;28;20028;-74
2022/07/16 03:34:28;;;;;;;12.82;4.00;;;25.00;99.90;;;;;;5089089;28;20453;-75
2022/07/16 03:36:53;;;;;;;5.60;4.10;;;25.00;99.90;;;;;;5088919;28;20055;-75
2022/07/16 03:39:19;;;;;;;4.20;3.80;;;24.90;99.90;;;;;;5078196;28;20093;-74
2022/07/16 03:41:45;;;;;;;6.93;4.00;;;24.50;99.90;;;;;;5070221;28;20024;-74
2022/07/16 03:44:12;;;;;;;7.38;4.13;;;24.40;99.90;;;;;;5069152;28;20024;-74
2022/07/16 03:46:38;;;;;;;10.20;4.50;;;24.60;99.90;;;;;;5070471;28;20031;-74
2022/07/16 03:49:04;;;;;;;4.95;4.45;;;24.60;99.90;;;;;;5070384;28;20032;-74
2022/07/16 03:51:30;;;;;;;3.88;3.53;;;24.60;99.90;;;;;;5068875;28;20062;-74
2022/07/16 03:53:56;;;;;;;4.50;4.10;;;24.60;99.90;;;;;;5069581;28;20052;-74
2022/07/16 03:56:22;;;;;;;10.27;4.78;;;24.70;99.90;;;;;;5070008;28;20389;-74
2022/07/16 03:58:48;;;;;;;4.60;4.25;;;24.70;99.90;;;;;;5068690;28;20391;-74
2022/07/16 04:01:14;;;;;;;7.97;4.50;;;24.70;99.90;;;;;;5068724;28;20066;-75
2022/07/16 04:03:39;;;;;;;7.40;3.95;;;24.70;99.90;;;;;;5070091;28;20024;-75
2022/07/16 04:06:05;;;;;;;5.32;4.13;;;24.70;99.90;;;;;;5068684;28;20024;-73
2022/07/16 04:08:32;;;;;;;4.90;4.30;;;24.60;99.90;;;;;;5080218;28;20025;-74
2022/07/16 04:10:58;;;;;;;9.10;4.70;;;24.60;99.90;;;;;;5069703;28;20031;-74
2022/07/16 04:13:23;;;;;;;7.88;4.65;;;24.70;99.90;;;;;;5068632;28;20115;-74
2022/07/16 04:15:49;;;;;;;7.40;4.15;;;24.70;99.90;;;;;;5076551;28;20024;-74
2022/07/16 04:18:15;;;;;;;5.13;4.57;;;24.80;99.90;;;;;;5080217;28;20427;-75
2022/07/16 04:20:41;;;;;;;6.25;4.47;;;24.70;99.90;;;;;;5089848;28;20107;-74
2022/07/16 04:23:07;;;;;;;7.32;3.47;;;24.80;99.90;;;;;;5088619;28;20024;-74
2022/07/16 04:25:33;;;;;;;9.30;5.15;;;24.80;99.90;;;;;;5090231;28;20024;-74
2022/07/16 04:27:59;;;;;;;11.30;4.05;;;24.80;99.90;;;;;;5089990;28;20024;-74
2022/07/16 04:30:25;;;;;;;5.85;3.75;;;24.90;99.90;;;;;;5089830;28;20157;-74
2022/07/16 04:32:51;;;;;;;6.70;4.38;;;24.90;99.90;;;;;;5089989;28;20421;-73
2022/07/16 04:35:17;;;;;;;4.18;3.45;;;25.00;99.90;;;;;;5089942;28;20055;-74
2022/07/16 04:37:43;;;;;;;8.77;3.95;;;24.90;99.90;;;;;;5088351;28;20024;-74
2022/07/16 04:40:11;;;;;;;18.30;4.57;;;25.00;99.90;;;;;;5089629;28;20025;-74
2022/07/16 04:42:41;;;;;;;8.93;4.43;;;25.00;99.90;;;;;;5090008;28;20021;-73
2022/07/16 04:45:09;;;;;;;6.65;3.97;;;25.00;99.90;;;;;;5088747;28;20168;-74
2022/07/16 04:47:35;;;;;;;6.53;4.32;;;25.10;99.90;;;;;;5087147;28;20034;-75
2022/07/16 04:50:01;;;;;;;8.07;4.28;;;25.10;99.90;;;;;;5089215;28;20050;-73
2022/07/16 04:52:27;;;;;;;4.30;3.90;;;25.20;99.90;;;;;;5089681;28;20638;-74
2022/07/16 04:54:53;;;;;;;5.22;4.57;;;25.30;99.90;;;;;;5088843;28;20191;-74
2022/07/16 04:57:19;;;;;;;4.75;3.70;;;25.30;99.90;;;;;;5090217;28;20091;-74
2022/07/16 04:59:44;;;;;;;5.93;4.00;;;25.30;99.90;;;;;;5090545;28;20036;-73
2022/07/16 05:04:55;;;;;;;8.73;4.60;;;25.50;99.90;;;;;;5090636;28;20130;-73
2022/07/16 05:07:20;;;;;;;7.68;4.90;;;25.50;99.90;;;;;;5095959;28;20024;-73
2022/07/16 05:09:46;;;;;;;4.80;4.05;;;25.60;99.90;;;;;;5094344;28;20027;-74
2022/07/16 05:12:12;;;;;;;7.75;4.20;;;25.70;99.90;;;;;;5093636;28;20134;-74
2022/07/16 05:14:38;;;;;;;4.88;3.53;;;25.70;99.90;;;;;;5106638;28;20028;-75
2022/07/16 05:17:03;;;;;;;8.88;4.15;;;25.70;99.90;;;;;;5101197;28;20028;-74
2022/07/16 05:19:29;;;;;;;7.72;3.83;;;25.80;99.90;;;;;;5103279;28;20059;-74
2022/07/16 05:21:55;;;;;;;7.55;4.25;;;25.80;99.90;;;;;;5105514;28;20016;-73
2022/07/16 05:24:21;;;;;;;7.72;4.28;;;25.80;99.90;;;;;;5095781;28;20028;-75
2022/07/16 05:26:46;;;;;;;3.90;3.60;;;25.90;99.90;;;;;;5092286;28;20020;-74
2022/07/16 05:29:12;;;;;;;6.18;3.97;;;25.90;99.90;;;;;;5091546;28;20055;-74
2022/07/16 05:31:38;;;;;;;8.20;5.18;;;25.90;99.90;;;;;;5093095;28;20051;-75
2022/07/16 05:34:03;;;;;;;4.65;3.47;;;25.90;99.90;;;;;;5088946;28;20188;-74
2022/07/16 05:36:29;;;;;;;5.30;4.60;;;25.90;99.90;;;;;;5072513;28;20040;-75
2022/07/16 05:38:55;;;;;;;9.73;5.57;;;25.80;99.90;;;;;;5072729;28;20069;-75
2022/07/16 05:41:21;;;;;;;7.03;4.20;;;25.80;99.90;;;;;;5072762;28;20398;-74
2022/07/16 05:43:47;;;;;;;11.75;4.55;;;25.80;99.90;;;;;;5071767;28;20017;-74
2022/07/16 05:46:13;;;;;;;7.25;4.07;;;25.80;99.90;;;;;;5072062;28;20437;-73
2022/07/16 05:48:38;;;;;;;4.35;3.95;;;25.80;99.90;;;;;;5073362;28;20051;-74
2022/07/16 05:51:04;;;;;;;4.97;3.72;;;25.80;99.90;;;;;;5072862;28;20028;-74
2022/07/16 05:53:30;;;;;;;6.43;4.18;;;25.90;99.90;;;;;;5072513;28;20067;-73
2022/07/16 05:55:56;;;;;;;7.15;4.22;;;25.90;99.90;;;;;;5086349;28;20066;-74
2022/07/16 05:58:22;;;;;;;13.52;4.10;;;25.90;99.90;;;;;;5091160;28;20424;-73
2022/07/16 06:00:47;;;;;;;4.38;3.83;;;26.00;99.90;;;;;;5091142;28;20035;-73
2022/07/16 06:03:13;;;;;;;8.95;4.63;;;26.00;99.90;;;;;;5091206;28;20059;-73
2022/07/16 06:05:39;;;;;;;10.57;4.43;;;26.10;99.90;;;;;;5092621;28;20028;-75
2022/07/16 06:08:04;;;;;;;6.55;3.95;;;26.00;99.90;;;;;;5092894;28;20043;-73
2022/07/16 06:10:30;;;;;;;7.40;3.85;;;26.00;99.90;;;;;;5092117;28;20477;-75
2022/07/16 06:12:57;;;;;;;10.40;4.15;;;25.90;99.90;;;;;;5094899;28;20563;-74
2022/07/16 06:15:23;;;;;;;6.30;3.88;;;26.00;99.90;;;;;;5091584;28;20035;-75
2022/07/16 06:17:48;;;;;;;13.57;4.13;;;26.00;99.90;;;;;;5092826;28;20398;-73
2022/07/16 06:20:15;;;;;;;5.95;4.40;;;26.10;99.90;;;;;;5093282;28;20020;-74
2022/07/16 06:22:40;;;;;;;4.75;4.25;;;26.10;99.90;;;;;;5087805;28;20024;-73
2022/07/16 06:25:06;;;;;;;4.47;3.40;;;26.20;99.90;;;;;;5102389;28;20131;-74
2022/07/16 06:27:32;;;;;;;6.38;3.88;;;26.20;99.90;;;;;;5103088;28;20028;-74
2022/07/16 06:30:02;;;;;;;8.70;4.22;;;26.20;99.90;;;;;;5094923;28;20023;-73
2022/07/16 06:32:28;;;;;;;6.43;4.10;;;26.30;99.90;;;;;;5083524;28;20155;-75
2022/07/16 06:34:54;;;;;;;3.88;3.58;;;26.40;99.90;;;;;;5081204;28;20059;-74
2022/07/16 06:37:20;;;;;;;8.88;3.97;;;26.40;99.90;;;;;;5078909;28;20036;-74
2022/07/16 06:39:45;;;;;;;11.40;4.43;;;26.40;99.90;;;;;;5082959;28;20086;-74
2022/07/16 06:42:11;;;;;;;6.75;4.10;;;26.50;99.90;;;;;;5073163;28;20024;-74
2022/07/16 06:44:39;;;;;;;6.85;4.45;;;26.60;99.90;;;;;;5073940;28;20107;-75
2022/07/16 06:47:05;;;;;;;4.38;3.78;;;26.60;99.90;;;;;;5073631;28;20021;-73
2022/07/16 06:49:31;;;;;;;5.57;3.90;;;26.70;99.90;;;;;;5073221;28;20070;-73
2022/07/16 06:51:56;;;;;;;5.05;3.63;;;26.80;99.90;;;;;;5106145;28;20055;-74
2022/07/16 06:54:22;;;;;;;6.63;4.00;;;26.90;99.90;;;;;;5113121;28;20032;-75
2022/07/16 06:56:48;;;;;;;6.07;3.58;;;27.00;99.90;;;;;;5114968;28;20024;-76
2022/07/16 06:59:14;;;;;;;6.60;3.85;;;27.20;99.90;;;;;;5115501;28;20036;-74
2022/07/16 07:01:39;;;;;;;9.70;4.68;;;27.10;99.90;;;;;;5115008;28;20118;-74
2022/07/16 07:04:05;;;;;;;5.50;3.72;;;27.10;99.90;;;;;;5115258;28;20050;-73
2022/07/16 07:06:31;;;;;;;5.93;4.32;;;27.20;99.90;;;;;;5111667;28;20028;-74
2022/07/16 07:08:57;;;;;;;12.77;4.90;;;27.20;99.90;;;;;;5111410;28;20061;-76
2022/07/16 07:11:23;;;;;;;4.47;4.07;;;27.30;99.90;;;;;;5102018;28;20635;-74
2022/07/16 07:13:48;;;;;;;8.82;4.57;;;27.20;99.90;;;;;;5095870;28;20028;-74
2022/07/16 07:16:15;;;;;;;7.43;4.45;;;27.20;99.90;;;;;;5095418;28;20054;-74
2022/07/16 07:18:40;;;;;;;11.07;4.40;;;27.40;99.90;;;;;;5094322;28;20093;-73
2022/07/16 07:21:06;;;;;;;11.02;3.75;;;27.40;99.90;;;;;;5091878;28;20490;-74
2022/07/16 07:23:32;;;;;;;7.18;5.05;;;27.40;99.90;;;;;;5078624;28;20478;-75
2022/07/16 07:25:58;;;;;;;6.55;4.20;;;27.40;99.90;;;;;;5071760;28;20034;-74
2022/07/16 07:28:24;;;;;;;10.82;5.03;;;27.40;99.90;;;;;;5071263;28;20025;-75
2022/07/16 07:30:50;;;;;;;16.38;12.02;;;27.50;99.90;;;;;;5070654;28;20056;-74
2022/07/16 07:33:15;;;;;;;13.75;9.82;;;27.50;99.90;;;;;;5070061;28;20028;-76
2022/07/16 07:35:42;;;;;;;12.63;7.57;;;27.50;99.90;;;;;;5069430;28;20505;-75
2022/07/16 07:38:08;;;;;;;11.55;5.50;;;27.70;99.90;;;;;;5069718;28;20028;-75
2022/07/16 07:40:33;;;;;;;8.00;5.18;;;27.80;99.90;;;;;;5070893;28;20035;-75
2022/07/16 07:42:59;;;;;;;17.02;5.07;;;27.90;99.90;;;;;;5072493;28;20446;-75
2022/07/16 07:45:26;;;;;;;8.85;4.95;;;27.90;99.90;;;;;;5073593;28;20475;-74
2022/07/16 07:47:52;;;;;;;6.70;5.03;;;27.90;99.90;;;;;;5072984;28;20020;-75
2022/07/16 07:50:18;;;;;;;6.63;5.03;;;27.90;99.90;;;;;;5069687;28;20558;-76
2022/07/16 07:52:44;;;;;;;5.28;4.30;;;27.90;99.90;;;;;;5084280;28;20024;-75
2022/07/16 07:55:10;;;;;;;9.20;5.25;;;27.90;99.90;;;;;;5071684;28;20130;-76
2022/07/16 07:57:36;;;;;;;4.38;3.72;;;27.80;99.90;;;;;;5071756;28;20376;-74
2022/07/16 08:00:03;;;;;;;6.65;4.65;;;27.90;99.90;;;;;;5070362;28;20025;-74
2022/07/16 08:02:28;;;;;;;6.28;4.60;;;28.10;99.90;;;;;;5069894;28;20025;-75
2022/07/16 08:04:54;;;;;;;11.75;8.07;;;28.10;99.90;;;;;;5069826;28;20043;-75
2022/07/16 08:07:20;;;;;;;12.98;10.02;;;28.00;99.90;;;;;;5074738;28;20040;-75
2022/07/16 08:09:45;;;;;;;8.38;6.88;;;28.00;99.90;;;;;;5077843;28;20013;-74
2022/07/16 08:12:11;;;;;;;6.38;5.75;;;28.10;99.90;;;;;;5090160;28;20099;-74
2022/07/16 08:14:37;;;;;;;8.45;4.60;;;28.00;99.90;;;;;;5084019;28;20444;-74
2022/07/16 08:17:03;;;;;;;7.53;4.82;;;28.10;99.90;;;;;;5089031;28;20032;-74
2022/07/16 08:19:31;;;;;;;7.30;3.95;;;28.20;99.90;;;;;;5081735;28;20103;-74
2022/07/16 08:21:57;;;;;;;6.00;4.07;;;28.20;99.90;;;;;;5090693;28;20020;-75
2022/07/16 08:27:07;;;;;;;6.30;4.78;;;28.40;99.90;;;;;;5090669;28;20504;-75
2022/07/16 08:29:33;;;;;;;9.27;6.32;;;28.40;99.90;;;;;;5088947;28;20028;-75
2022/07/16 08:31:58;;;;;;;7.43;6.65;;;28.40;99.90;;;;;;5089806;28;20095;-74
2022/07/16 08:34:24;;;;;;;5.13;4.63;;;28.50;99.90;;;;;;5090881;28;20040;-75
2022/07/16 08:36:52;;;;;;;9.20;5.13;;;28.60;99.90;;;;;;5089349;28;20062;-74
2022/07/16 08:39:18;;;;;;;8.73;4.20;;;28.60;99.90;;;;;;5090888;28;20056;-74
2022/07/16 08:41:44;;;;;;;8.35;4.55;;;28.60;99.90;;;;;;5091738;28;20028;-74
2022/07/16 08:44:12;;;;;;;4.25;3.83;;;28.60;99.90;;;;;;5084704;28;20089;-75
2022/07/16 08:46:38;;;;;;;8.50;4.65;;;28.60;99.90;;;;;;5074120;28;20035;-74
2022/07/16 08:49:04;;;;;;;8.05;4.78;;;28.70;99.90;;;;;;5073854;28;20020;-74
2022/07/16 08:51:35;;;;;;;5.88;4.13;;;28.80;99.90;;;;;;5074192;28;20103;-74
2022/07/16 08:54:08;;;;;;;11.77;4.80;;;28.80;99.90;;;;;;5072245;28;20158;-75
2022/07/16 08:56:35;;;;;;;4.82;4.30;;;28.80;99.90;;;;;;5074933;28;20070;-74
2022/07/16 08:59:01;;;;;;;11.65;5.25;;;29.00;99.90;;;;;;5073473;28;20107;-75
2022/07/16 09:01:29;;;;;;;6.32;4.13;;;29.00;99.90;;;;;;5073962;28;20067;-74
2022/07/16 09:03:59;;;;;;;7.43;4.13;;;29.10;99.90;;;;;;5073227;28;20039;-76
2022/07/16 09:06:26;;;;;;;4.70;3.75;;;29.10;99.90;;;;;;5074384;28;20036;-74
2022/07/16 09:08:53;;;;;;;10.30;4.90;;;29.20;99.90;;;;;;5074624;28;20071;-76
2022/07/16 09:11:24;;;;;;;13.73;4.88;;;29.20;99.90;;;;;;5075701;28;21107;-75
2022/07/16 09:13:59;;;;;;;9.40;4.88;;;29.30;99.90;;;;;;5081081;28;20218;-74
2022/07/16 09:16:30;;;;;;;11.52;4.97;;;29.30;99.90;;;;;;5093925;28;20490;-74
2022/07/16 09:19:20;;;;;;;4.32;3.92;;;29.40;99.90;;;;;;5093210;28;20473;-75
2022/07/16 09:22:11;;;;;;;7.72;4.93;;;29.40;99.90;;;;;;5092646;28;20028;-74
2022/07/16 09:24:52;;;;;;;5.45;4.53;;;29.50;99.90;;;;;;5093979;28;20066;-74
2022/07/16 09:27:27;;;;;;;9.27;4.60;;;29.60;99.90;;;;;;5094139;28;20024;-75
2022/07/16 09:29:54;;;;;;;7.57;4.57;;;29.80;99.90;;;;;;5093883;28;20020;-74
2022/07/16 09:32:30;;;;;;;5.65;4.70;;;30.00;99.90;;;;;;5092725;28;20111;-75
2022/07/16 09:35:02;;;;;;;12.10;4.03;;;30.10;99.90;;;;;;5093660;28;20052;-74
2022/07/16 09:37:48;;;;;;;5.95;4.78;;;29.90;99.90;;;;;;5093817;28;20024;-75
2022/07/16 09:40:15;;;;;;;4.35;3.95;;;29.80;99.90;;;;;;5091280;28;20397;-75
2022/07/16 09:42:41;;;;;;;5.35;3.80;;;29.90;99.90;;;;;;5079184;28;20108;-75
2022/07/16 09:45:18;;;;;;;6.10;4.68;;;30.10;99.90;;;;;;5073229;28;20436;-74
2022/07/16 09:47:43;;;;;;;11.55;9.52;;;30.30;99.90;;;;;;5083628;28;20059;-74
2022/07/16 09:50:09;;;;;;;7.85;7.03;;;30.20;99.90;;;;;;5092958;28;20056;-74
2022/07/16 09:52:35;;;;;;;6.05;4.97;;;30.20;99.90;;;;;;5092539;28;20112;-74
2022/07/16 09:55:02;;;;;;;7.30;6.15;;;30.30;99.90;;;;;;5094179;28;20031;-74
2022/07/16 09:57:28;;;;;;;5.43;4.38;;;30.20;99.90;;;;;;5093862;28;20035;-73
2022/07/16 09:59:56;;;;;;;7.20;4.65;;;30.40;99.90;;;;;;5093413;28;20519;-73
2022/07/16 10:02:23;;;;;;;4.20;3.60;;;30.40;99.90;;;;;;5093920;28;20474;-74
2022/07/16 10:04:49;;;;;;;5.85;4.53;;;30.70;99.90;;;;;;5093006;28;20020;-76
2022/07/16 10:07:17;;;;;;;4.65;4.28;;;30.90;99.90;;;;;;5091084;28;20043;-75
2022/07/16 10:09:43;;;;;;;7.97;4.30;;;30.80;99.90;;;;;;5091995;28;20016;-74
2022/07/16 10:12:12;;;;;;;6.35;4.82;;;30.80;99.90;;;;;;5082961;28;20116;-76
2022/07/16 10:14:44;;;;;;;7.28;4.50;;;30.60;99.90;;;;;;5072200;28;20025;-74
2022/07/16 10:17:16;;;;;;;4.45;4.03;;;30.70;99.90;;;;;;5072350;28;20043;-73
2022/07/16 10:19:43;;;;;;;5.43;4.93;;;31.00;99.90;;;;;;5072323;28;20048;-75
2022/07/16 10:22:26;;;;;;;5.18;4.70;;;30.90;99.90;;;;;;5074156;28;20106;-74
2022/07/16 10:24:55;;;;;;;4.18;3.88;;;31.00;99.90;;;;;;5070935;28;20020;-73
2022/07/16 10:27:28;;;;;;;4.97;4.43;;;31.00;99.90;;;;;;5072106;28;20025;-75
2022/07/16 10:30:16;;;;;;;5.47;4.18;;;31.10;99.90;;;;;;5072288;28;20520;-75
2022/07/16 10:33:03;;;;;;;4.72;4.28;;;31.10;99.90;;;;;;5072151;28;20482;-74
2022/07/16 10:35:30;;;;;;;5.78;3.80;;;31.40;99.90;;;;;;5072145;28;20029;-75
2022/07/16 10:38:09;;;;;;;5.32;4.50;;;31.70;99.90;;;;;;5072230;28;20028;-75
2022/07/16 10:40:37;;;;;;;6.47;4.15;;;32.10;99.90;;;;;;5084244;28;20058;-75
2022/07/16 10:43:15;;;;;;;5.97;3.55;;;32.20;99.90;;;;;;5091723;28;20028;-75
2022/07/16 10:45:51;;;;;;;8.23;4.47;;;32.40;99.90;;;;;;5091948;28;20024;-75
2022/07/16 10:48:18;;;;;;;5.85;4.38;;;32.00;99.90;;;;;;5076120;28;20119;-76
2022/07/16 10:51:09;;;;;;;12.95;4.40;;;31.90;99.90;;;;;;5070549;28;20033;-75
2022/07/16 10:53:57;;;;;;;4.47;3.90;;;32.40;99.90;;;;;;5072449;28;20029;-74
2022/07/16 10:56:35;;;;;;;10.48;4.78;;;32.50;99.90;;;;;;5071738;28;20103;-76
2022/07/16 10:59:02;;;;;;;6.65;4.15;;;32.30;99.90;;;;;;5071527;28;20074;-74
2022/07/16 11:01:29;;;;;;;5.95;4.15;;;32.20;99.90;;;;;;5071903;28;20479;-76
2022/07/16 11:03:55;;;;;;;9.95;5.10;;;32.20;99.90;;;;;;5069318;28;20036;-76
2022/07/16 11:06:23;;;;;;;9.70;4.93;;;32.20;99.90;;;;;;5071730;28;20013;-76
2022/07/16 11:08:53;;;;;;;8.18;5.32;;;32.30;99.90;;;;;;5071509;28;20021;-75
2022/07/16 11:11:19;;;;;;;5.78;4.35;;;32.30;99.90;;;;;;5071141;28;20081;-67
2022/07/16 11:13:47;;;;;;;12.20;4.60;;;32.50;99.90;;;;;;5069809;28;20103;-68
2022/07/16 11:16:14;;;;;;;4.65;4.25;;;32.70;99.90;;;;;;5069704;28;20111;-67
2022/07/16 11:18:40;;;;;;;5.65;4.32;;;32.80;99.90;;;;;;5062007;28;20487;-65
2022/07/16 11:21:10;;;;;;;4.60;4.25;;;32.80;99.90;;;;;;5069926;28;20390;-66
2022/07/16 11:23:50;;;;;;;8.85;4.57;;;32.90;99.90;;;;;;5071097;28;20017;-67
2022/07/16 11:26:16;;;;;;;6.13;4.60;;;33.00;99.90;;;;;;5071296;28;20024;-66
2022/07/16 11:29:00;;;;;;;6.60;4.18;;;33.00;99.90;;;;;;5070996;28;20051;-67
2022/07/16 11:31:31;;;;;;;4.85;4.45;;;33.10;99.90;;;;;;5069595;28;20039;-68
2022/07/16 11:34:10;;;;;;;7.40;4.45;;;32.90;99.90;;;;;;5070847;28;20062;-68
2022/07/16 11:36:38;;;;;;;9.25;4.78;;;32.70;99.90;;;;;;5070921;28;20043;-67
2022/07/16 11:39:08;;;;;;;5.10;4.00;;;32.50;99.90;;;;;;5069295;28;20107;-66
2022/07/16 11:41:37;;;;;;;6.78;4.63;;;32.30;99.90;;;;;;5069463;28;20035;-66
2022/07/16 11:44:14;;;;;;;5.07;4.13;;;32.40;99.90;;;;;;5071202;28;20032;-67
2022/07/16 11:47:03;;;;;;;5.53;4.88;;;32.40;99.90;;;;;;5075206;28;20044;-67
2022/07/16 11:49:32;;;;;;;4.68;4.28;;;32.40;99.90;;;;;;5089864;28;20016;-67
2022/07/16 11:52:03;;;;;;;8.20;4.20;;;32.50;99.90;;;;;;5075470;28;20054;-67
2022/07/16 11:54:29;;;;;;;5.13;4.38;;;32.50;99.90;;;;;;5073020;28;20040;-67
2022/07/16 11:56:56;;;;;;;5.18;4.68;;;32.60;99.90;;;;;;5071459;28;20028;-67
2022/07/16 11:59:25;;;;;;;6.15;4.32;;;32.60;99.90;;;;;;5071414;28;20054;-66
2022/07/16 12:02:25;;;;;;;10.88;5.28;;;32.70;99.90;;;;;;5069949;28;20401;-67
2022/07/16 12:04:59;;;;;;;8.85;4.97;;;32.60;99.90;;;;;;5070788;28;20115;-68
2022/07/16 12:07:25;;;;;;;17.20;5.85;;;32.10;99.90;;;;;;5070693;28;20490;-67
2022/07/16 12:09:53;;;;;;;12.52;5.75;;;31.90;99.90;;;;;;5072051;28;20029;-67
2022/07/16 12:12:22;;;;;;;6.30;4.47;;;31.60;99.90;;;;;;5070643;28;20498;-68
2022/07/16 12:14:59;;;;;;;10.15;6.28;;;31.40;99.90;;;;;;5071845;28;20035;-67
2022/07/16 12:17:37;;;;;;;9.18;5.97;;;31.00;99.90;;;;;;5076450;28;20028;-68
2022/07/16 12:20:14;;;;;;;7.50;5.20;;;30.60;99.90;;;;;;5077978;28;20490;-67
2022/07/16 12:22:59;;;;;;;10.02;5.72;;;30.40;99.90;;;;;;5085851;28;20085;-67
2022/07/16 12:25:36;;;;;;;6.00;5.50;;;30.50;99.90;;;;;;5093347;28;20103;-66
2022/07/16 12:28:17;;;;;;;6.43;4.90;;;30.50;99.90;;;;;;5094498;28;20030;-67
2022/07/16 12:30:49;;;;;;;6.95;6.25;;;30.60;99.90;;;;;;5094196;28;20086;-67
2022/07/16 12:33:15;;;;;;;10.35;4.65;;;30.50;99.90;;;;;;5094258;28;20040;-67
2022/07/16 12:35:57;;;;;;;6.57;5.43;;;30.50;99.90;;;;;;5092837;28;20105;-67
2022/07/16 12:39:03;;;;;;;6.88;4.65;;;30.50;99.90;;;;;;5094312;28;20389;-68
2022/07/16 12:41:36;;;;;;;9.23;5.03;;;30.50;99.90;;;;;;5092696;28;20035;-67
2022/07/16 12:44:10;;;;;;;6.57;4.80;;;30.60;99.90;;;;;;5093994;28;20027;-67
2022/07/16 12:46:47;;;;;;;8.32;5.82;;;30.60;99.90;;;;;;5094153;28;20023;-67
2022/07/16 12:49:24;;;;;;;13.10;5.47;;;30.60;99.90;;;;;;5093684;28;20677;-68
2022/07/16 12:51:52;;;;;;;14.70;6.13;;;30.40;99.90;;;;;;5091117;28;20366;-68
2022/07/16 12:54:19;;;;;;;11.23;5.38;;;30.40;99.90;;;;;;5093688;28;20024;-68
2022/07/16 12:59:33;;;;;;;8.80;4.40;;;30.30;99.90;;;;;;5093987;28;20461;-73
2022/07/16 13:02:00;;;;;;;9.80;5.22;;;30.40;99.90;;;;;;5093965;28;20043;-72